Albert, OK

11:57 PM CDT on July 24, 2014 (GMT -0500)
Peck's country (KOKANADA2) Elev 1255 ft | 35.10 °N, 98.32 °W | Change Station
Active Advisory: Heat Advisory

Current weather conditions updated 6 minutes ago

Clear
Clear
78.6 °F
Feels Like 81 °F
N
2.0
Wind Variable Wind from SE
Gusts 11.0 mph

Tomorrow is forecast to be nearly the same temperature as today.

Today
High -- | Low -- °F
--% Chance of Precip.
Yesterday
High -- | Low -- °F
Precip. -- in
6:36 AM 8:43 PM
Waning Crescent, 3% visible
Pressure 30.01 in
Visibility 10.0 miles
Clouds Clear
Heat Index 81 °F
Dew Point 69 °F
Humidity 73%
Rainfall 0.00 in
Snow Depth Not available.
UV 0 out of 12
Pollen 5.40 out of 12
Air Quality Not available.
Flu Activity Not available.
METAR KOJA 250435Z AUTO 18008KT 10SM CLR 27/20 A3001 RMK AO2

More Conditions Fewer Conditions

Pressure 30.01 in
Visibility 10.0 miles
Clouds Clear
Heat Index 81 °F
Dew Point 69 °F
Humidity 73%
Rainfall 0.00 in
Snow Depth Not available.
UV 0 out of 12
Pollen 5.40 out of 12
Air Quality Not available.
Flu Activity Not available.
METAR KOJA 250435Z AUTO 18008KT 10SM CLR 27/20 A3001 RMK AO2

More Conditions Fewer Conditions

10-Day Weather Forecast

Almanac

Astronomy

Jul. 24, 2014 Rise Set
Actual Time 6:36 AM CDT 8:43 PM CDT
Civil Twilight 6:08 AM CDT 9:11 PM CDT
Nautical Twilight 5:33 AM CDT 9:46 PM CDT
Astronomical Twilight 4:55 AM CDT 10:23 PM CDT
Moon 4:45 AM CDT (7/24) 7:00 PM CDT (7/24)
Length of Visible Light 15h 03m
Length of Day
14h 06m
Tomorrow will be 1m 26s shorter.
Waning Crescent, 3% of the Moon is Illuminated
Jul 25
Waning Crescent
Jul 26
New
Aug 3
First Quarter
Aug 10
Full
Aug 17
Last Quarter

Yesterday's Extremes

State Highs State Lows

Community

WunderPhotos

Upload Photos

1,737,244 photos uploaded!

Nearby

Snow Depth

Station Depth Elevation
No new snow has been reported.

Earthquake Activity

City Distance Mag. Time & Date
Perry, Oklahoma 88 miles 2.9 7:28 AM CDT
2014-07-20
Harper, Kansas 139 miles 3.0 7:24 PM CDT
2014-07-19
Spencer, Oklahoma 63 miles 2.7 4:56 PM CDT
2014-07-18
Helena, Oklahoma 99 miles 3.2 8:41 AM CDT
2014-07-18
Minimum magnitude displayed is 2.5.

Coastal Water Temperatures

Place Temperature
No Stations Reporting

Nearby Weather Stations

Station Location Temp. Heat Index Dew Point Humidity Wind Precip. Elev Updated Type
Peck's country, Anadarko, OK 78.6 °F 81 °F 69 °F 73% SE  at  2.0 mph 0.00 in / hr 1255 ft 11:50 PM CDT Normal
Carnegie, Carnegie, OK 79.5 °F 81 °F 61 °F 54% East  at  2.7 mph 0.00 in / hr 1358 ft 11:56 PM CDT Rapid Fire

Show More Stations Show Fewer Stations